Time;durP1;ratioP1;P1;durP2;ratioP2;P2;SDS_P1;SDS_P2;PMS_P1;PMS_P2;Temp;Humidity;BMP_temperature;BMP_pressure;BME280_temperature;BME280_humidity;BME280_pressure;Samples;Min_cycle;Max_cycle;Signal;HPM_P1;HPM_P2
2024/02/02 00:00:12;;;;;;;;;;;3.60;99.90;;;;;;6729145;88;20554;-75
2024/02/02 00:10:12;;;;;;;;;;;3.60;99.90;;;;;;6730110;88;20059;-75
2024/02/02 00:20:14;;;;;;;;;;;3.50;99.90;;;;;;6734702;88;20067;-75
2024/02/02 00:30:14;;;;;;;;;;;3.60;99.90;;;;;;6725323;88;20071;-75
2024/02/02 00:40:15;;;;;;;;;;;3.60;99.90;;;;;;6722459;88;20077;-75
2024/02/02 00:50:15;;;;;;;;;;;3.60;99.90;;;;;;6727047;88;20067;-75
2024/02/02 01:00:16;;;;;;;;;;;3.50;99.90;;;;;;6728305;88;20074;-74
2024/02/02 01:10:17;;;;;;;;;;;3.50;99.90;;;;;;6730430;88;20055;-76
2024/02/02 01:20:17;;;;;;;;;;;3.40;99.90;;;;;;6723037;88;20096;-75
2024/02/02 01:30:18;;;;;;;;;;;3.30;99.90;;;;;;6728532;88;20097;-76
2024/02/02 01:40:19;;;;;;;;;;;3.30;99.90;;;;;;6734789;88;20523;-76
2024/02/02 01:50:20;;;;;;;;;;;3.50;99.90;;;;;;6725778;88;20098;-75
2024/02/02 02:00:20;;;;;;;;;;;3.60;99.90;;;;;;6724262;88;20079;-76
2024/02/02 02:10:21;;;;;;;;;;;3.80;99.90;;;;;;6722730;88;20525;-75
2024/02/02 02:20:22;;;;;;;;;;;3.80;99.90;;;;;;6724151;88;20559;-75
2024/02/02 02:30:22;;;;;;;;;;;3.80;99.90;;;;;;6720834;88;20661;-75
2024/02/02 02:40:23;;;;;;;;;;;3.80;99.90;;;;;;6718318;88;20088;-74
2024/02/02 02:50:23;;;;;;;;;;;3.80;99.90;;;;;;6721269;88;20111;-74
2024/02/02 03:00:27;;;;;;;;;;;3.80;99.90;;;;;;6725761;88;20586;-74
2024/02/02 03:10:28;;;;;;;;;;;3.80;99.90;;;;;;6721715;88;20484;-74
2024/02/02 03:20:30;;;;;;;;;;;3.80;99.90;;;;;;6723345;88;20059;-74
2024/02/02 03:30:30;;;;;;;;;;;3.80;99.90;;;;;;6727389;88;20095;-74
2024/02/02 03:40:31;;;;;;;;;;;4.00;99.90;;;;;;6725148;88;20179;-74
2024/02/02 03:50:31;;;;;;;;;;;4.20;99.90;;;;;;6733948;88;20104;-73
2024/02/02 04:00:31;;;;;;;;;;;4.40;99.90;;;;;;6725868;88;20080;-74
2024/02/02 04:10:32;;;;;;;;;;;4.40;99.90;;;;;;6724428;88;20055;-74
2024/02/02 04:20:33;;;;;;;;;;;4.70;99.90;;;;;;6720553;88;20054;-74
2024/02/02 04:30:35;;;;;;;;;;;4.60;99.90;;;;;;6728955;88;20067;-76
2024/02/02 04:40:35;;;;;;;;;;;4.60;99.90;;;;;;6731604;88;20055;-75
2024/02/02 04:50:36;;;;;;;;;;;4.60;99.90;;;;;;6734420;77;20066;-74
2024/02/02 05:00:36;;;;;;;;;;;4.60;99.90;;;;;;6723156;88;20509;-74
2024/02/02 05:10:36;;;;;;;;;;;4.70;99.90;;;;;;6717436;88;20188;-73
2024/02/02 05:20:38;;;;;;;;;;;4.70;99.90;;;;;;6716673;88;20474;-74
2024/02/02 05:30:39;;;;;;;;;;;4.50;99.90;;;;;;6717864;88;20476;-74
2024/02/02 05:40:39;;;;;;;;;;;4.40;99.90;;;;;;6716587;88;20072;-74
2024/02/02 05:50:39;;;;;;;;;;;4.20;99.90;;;;;;6715982;88;20078;-74
2024/02/02 06:00:40;;;;;;;;;;;4.10;99.90;;;;;;6716187;88;20088;-74
2024/02/02 06:10:40;;;;;;;;;;;3.80;99.90;;;;;;6716221;88;20054;-74
2024/02/02 06:20:41;;;;;;;;;;;4.00;99.90;;;;;;6717662;88;20073;-73
2024/02/02 06:30:42;;;;;;;;;;;4.30;99.90;;;;;;6717294;88;20100;-74
2024/02/02 06:40:42;;;;;;;;;;;4.30;99.90;;;;;;6712085;88;20051;-73
2024/02/02 06:50:44;;;;;;;;;;;4.20;99.90;;;;;;6716964;88;20508;-74
2024/02/02 07:00:44;;;;;;;;;;;4.30;99.90;;;;;;6709977;88;20593;-74
2024/02/02 07:10:45;;;;;;;;;;;4.30;99.90;;;;;;6715471;88;20074;-73
2024/02/02 07:21:09;;;;;;;;;;;4.50;99.90;;;;;;6709706;88;20102;-74
2024/02/02 07:31:13;;;;;;;;;;;4.70;99.90;;;;;;6716537;88;20117;-73
2024/02/02 07:41:14;;;;;;;;;;;4.70;99.90;;;;;;6716491;88;20066;-74
2024/02/02 07:51:17;;;;;;;;;;;4.50;99.90;;;;;;6716999;88;20187;-74
2024/02/02 08:01:18;;;;;;;;;;;4.50;99.90;;;;;;6719001;88;20479;-73
2024/02/02 08:11:18;;;;;;;;;;;4.60;99.90;;;;;;6718114;88;20050;-73
2024/02/02 08:21:18;;;;;;;;;;;4.70;99.90;;;;;;6720028;88;20801;-73
2024/02/02 08:31:19;;;;;;;;;;;4.90;99.90;;;;;;6722615;88;20489;-73
2024/02/02 08:41:19;;;;;;;;;;;5.30;99.90;;;;;;6721689;88;20058;-73
2024/02/02 08:51:20;;;;;;;;;;;5.70;99.90;;;;;;6715253;88;20590;-74
2024/02/02 09:01:26;;;;;;;;;;;6.20;99.90;;;;;;6720397;88;20054;-76
2024/02/02 09:11:27;;;;;;;;;;;6.60;99.90;;;;;;6719835;88;20062;-75
2024/02/02 09:21:32;;;;;;;;;;;7.10;99.90;;;;;;6713354;88;20088;-74
2024/02/02 09:31:37;;;;;;;;;;;7.60;99.90;;;;;;6716845;88;20076;-74
2024/02/02 09:42:01;;;;;;;;;;;8.10;99.90;;;;;;6716936;88;20058;-72
2024/02/02 09:52:25;;;;;;;;;;;8.70;99.90;;;;;;6716485;88;20182;-75
2024/02/02 10:02:28;;;;;;;;;;;8.80;99.90;;;;;;6718065;88;20058;-74
2024/02/02 10:12:31;;;;;;;;;;;9.40;99.90;;;;;;6717471;88;20050;-73
2024/02/02 10:22:39;;;;;;;;;;;9.50;99.90;;;;;;6722304;88;20109;-75
2024/02/02 10:33:00;;;;;;;;;;;9.70;99.90;;;;;;6724950;88;20072;-74
2024/02/02 10:43:19;;;;;;;;;;;9.90;99.90;;;;;;6720908;88;20636;-74
2024/02/02 10:53:40;;;;;;;;;;;10.20;99.90;;;;;;6740480;77;20054;-80
2024/02/02 11:03:48;;;;;;;;;;;10.10;99.90;;;;;;6747590;88;20062;-80
2024/02/02 11:13:48;;;;;;;;;;;11.30;99.90;;;;;;6753547;88;20505;-81
2024/02/02 11:23:49;;;;;;;;;;;12.60;99.90;;;;;;6767240;88;20074;-81
2024/02/02 11:34:03;;;;;;;;;;;12.00;99.90;;;;;;6751094;88;20513;-83
2024/02/02 11:44:04;;;;;;;;;;;13.50;99.90;;;;;;6752681;88;20082;-77
2024/02/02 11:54:12;;;;;;;;;;;14.60;98.50;;;;;;6745164;88;20083;-79
2024/02/02 12:04:20;;;;;;;;;;;15.60;98.60;;;;;;6752011;88;20055;-80
2024/02/02 12:14:27;;;;;;;;;;;15.40;97.90;;;;;;6760498;87;20026;-80
2024/02/02 12:24:28;;;;;;;;;;;15.40;98.90;;;;;;6756321;88;20205;-80
2024/02/02 12:34:29;;;;;;;;;;;16.50;93.60;;;;;;6749058;88;20087;-80
2024/02/02 12:44:30;;;;;;;;;;;15.60;94.80;;;;;;6745911;88;20070;-80
2024/02/02 12:54:30;;;;;;;;;;;16.20;94.50;;;;;;6747296;88;20084;-82
2024/02/02 13:04:31;;;;;;;;;;;16.30;94.90;;;;;;6750902;88;20051;-80
2024/02/02 13:14:33;;;;;;;;;;;16.00;95.70;;;;;;6752966;88;20051;-81
2024/02/02 13:24:44;;;;;;;;;;;17.80;94.60;;;;;;6751655;88;20093;-80
2024/02/02 13:34:44;;;;;;;;;;;18.90;94.30;;;;;;6727476;88;20525;-80
2024/02/02 13:44:45;;;;;;;;;;;19.80;93.30;;;;;;6732865;88;20093;-79
2024/02/02 13:54:45;;;;;;;;;;;21.20;92.50;;;;;;6738436;88;20070;-79
2024/02/02 14:04:46;;;;;;;;;;;19.00;94.10;;;;;;6741865;88;20075;-79
2024/02/02 14:14:46;;;;;;;;;;;19.10;95.60;;;;;;6743449;88;20563;-79
2024/02/02 14:24:47;;;;;;;;;;;17.70;97.70;;;;;;6743100;88;20057;-79
2024/02/02 14:34:48;;;;;;;;;;;17.00;98.90;;;;;;6742032;88;20103;-80
2024/02/02 14:44:48;;;;;;;;;;;16.30;99.90;;;;;;6737319;88;20097;-79
2024/02/02 14:54:49;;;;;;;;;;;15.70;99.90;;;;;;6740403;88;20105;-79
2024/02/02 15:04:49;;;;;;;;;;;15.30;99.90;;;;;;6739188;88;20506;-79
2024/02/02 15:14:50;;;;;;;;;;;14.90;99.90;;;;;;6732552;88;20074;-79
2024/02/02 15:24:50;;;;;;;;;;;15.10;99.60;;;;;;6724777;88;20054;-79
2024/02/02 15:34:51;;;;;;;;;;;14.80;99.80;;;;;;6723832;88;20206;-80
2024/02/02 15:44:54;;;;;;;;;;;14.30;99.90;;;;;;6741053;88;20613;-78
2024/02/02 15:55:00;;;;;;;;;;;13.90;99.90;;;;;;6759771;87;20085;-78
2024/02/02 16:05:01;;;;;;;;;;;13.30;99.90;;;;;;6723933;88;20070;-79
2024/02/02 16:15:01;;;;;;;;;;;12.70;99.90;;;;;;6724832;88;20214;-78
2024/02/02 16:25:02;;;;;;;;;;;12.10;99.90;;;;;;6744709;88;20053;-78
2024/02/02 16:35:04;;;;;;;;;;;11.60;99.90;;;;;;6746047;88;20640;-78
2024/02/02 16:45:04;;;;;;;;;;;11.30;99.90;;;;;;6746325;88;20223;-78
2024/02/02 16:55:05;;;;;;;;;;;11.00;99.90;;;;;;6726269;77;20220;-75
2024/02/02 17:05:06;;;;;;;;;;;10.70;99.90;;;;;;6725406;88;20152;-75
2024/02/02 17:15:07;;;;;;;;;;;10.40;99.90;;;;;;6730115;88;20107;-74
2024/02/02 17:25:08;;;;;;;;;;;10.20;99.90;;;;;;6725505;88;20081;-75
2024/02/02 17:35:09;;;;;;;;;;;10.00;99.90;;;;;;6728405;88;20703;-74
2024/02/02 17:45:10;;;;;;;;;;;9.90;99.90;;;;;;6728211;88;20050;-75
2024/02/02 17:55:10;;;;;;;;;;;9.50;99.90;;;;;;6731558;88;20124;-77
2024/02/02 18:05:10;;;;;;;;;;;9.40;99.90;;;;;;6728282;88;20371;-75
2024/02/02 18:15:11;;;;;;;;;;;9.20;99.90;;;;;;6729216;88;20414;-76
2024/02/02 18:25:11;;;;;;;;;;;9.00;99.90;;;;;;6731633;88;20066;-76
2024/02/02 18:35:12;;;;;;;;;;;8.90;99.90;;;;;;6726375;88;20565;-75
2024/02/02 18:45:12;;;;;;;;;;;8.70;99.90;;;;;;6728433;88;20499;-76
2024/02/02 18:55:13;;;;;;;;;;;8.50;99.90;;;;;;6732411;88;20063;-76
2024/02/02 19:05:14;;;;;;;;;;;8.50;99.90;;;;;;6730025;88;20124;-76
2024/02/02 19:15:14;;;;;;;;;;;8.40;99.90;;;;;;6730041;88;20112;-76
2024/02/02 19:25:15;;;;;;;;;;;7.90;99.90;;;;;;6728610;88;20651;-76
2024/02/02 19:35:15;;;;;;;;;;;7.70;99.90;;;;;;6727372;88;20066;-78
2024/02/02 19:45:16;;;;;;;;;;;7.60;99.90;;;;;;6727397;88;20066;-77
2024/02/02 19:55:16;;;;;;;;;;;7.50;99.90;;;;;;6731364;88;20203;-76
2024/02/02 20:05:17;;;;;;;;;;;7.50;99.90;;;;;;6732647;88;20066;-77
2024/02/02 20:15:18;;;;;;;;;;;7.40;99.90;;;;;;6732499;88;20066;-77
2024/02/02 20:25:18;;;;;;;;;;;7.20;99.90;;;;;;6734205;88;20544;-77
2024/02/02 20:35:19;;;;;;;;;;;7.20;99.90;;;;;;6730221;88;20106;-76
2024/02/02 20:45:19;;;;;;;;;;;7.30;99.90;;;;;;6728915;88;20121;-76
2024/02/02 20:55:20;;;;;;;;;;;7.30;99.90;;;;;;6729661;88;20101;-76
2024/02/02 21:05:20;;;;;;;;;;;7.40;99.90;;;;;;6730939;88;20087;-75
2024/02/02 21:15:21;;;;;;;;;;;7.40;99.90;;;;;;6733438;88;20076;-76
2024/02/02 21:25:21;;;;;;;;;;;7.60;99.90;;;;;;6731175;88;20075;-79
2024/02/02 21:35:21;;;;;;;;;;;7.70;99.90;;;;;;6732630;88;20054;-75
2024/02/02 21:45:22;;;;;;;;;;;7.90;99.90;;;;;;6731720;88;20084;-74
2024/02/02 21:55:22;;;;;;;;;;;7.70;99.90;;;;;;6732107;88;20051;-76
2024/02/02 22:05:23;;;;;;;;;;;7.70;99.90;;;;;;6731438;88;20185;-75
2024/02/02 22:15:23;;;;;;;;;;;7.50;99.90;;;;;;6730623;88;20117;-75
2024/02/02 22:25:24;;;;;;;;;;;7.40;99.90;;;;;;6728160;88;20054;-74
2024/02/02 22:35:24;;;;;;;;;;;7.60;99.90;;;;;;6732123;88;20483;-75
2024/02/02 22:45:25;;;;;;;;;;;7.90;99.90;;;;;;6733412;88;20054;-76
2024/02/02 22:55:25;;;;;;;;;;;8.10;99.90;;;;;;6721040;77;20541;-77
2024/02/02 23:05:26;;;;;;;;;;;8.40;99.90;;;;;;6723148;88;20075;-77
2024/02/02 23:15:26;;;;;;;;;;;8.50;99.90;;;;;;6730079;88;20058;-77
2024/02/02 23:25:26;;;;;;;;;;;8.60;99.90;;;;;;6738412;88;20074;-77
2024/02/02 23:35:27;;;;;;;;;;;8.80;99.90;;;;;;6736150;88;20340;-75
2024/02/02 23:45:27;;;;;;;;;;;8.90;99.90;;;;;;6727002;88;20091;-76
2024/02/02 23:55:28;;;;;;;;;;;9.00;99.90;;;;;;6728180;88;20588;-77
